sensor_id;sensor_type;location;lat;lon;timestamp;P1;durP1;ratioP1;P2;durP2;ratioP2
70929;SDS011;58588;48.102;19.682;2023-04-01T00:01:57;10.93;;;3.30;;
70929;SDS011;58588;48.102;19.682;2023-04-01T00:04:59;8.55;;;2.30;;
70929;SDS011;58588;48.102;19.682;2023-04-01T00:08:03;13.77;;;4.28;;
70929;SDS011;58588;48.102;19.682;2023-04-01T00:11:05;9.33;;;2.83;;
70929;SDS011;58588;48.102;19.682;2023-04-01T00:14:07;8.63;;;2.90;;
70929;SDS011;58588;48.102;19.682;2023-04-01T00:17:10;13.07;;;4.88;;
70929;SDS011;58588;48.102;19.682;2023-04-01T00:20:12;10.43;;;3.45;;
70929;SDS011;58588;48.102;19.682;2023-04-01T00:23:16;6.25;;;1.30;;
70929;SDS011;58588;48.102;19.682;2023-04-01T00:26:19;5.73;;;1.60;;
70929;SDS011;58588;48.102;19.682;2023-04-01T00:29:21;5.90;;;1.60;;
70929;SDS011;58588;48.102;19.682;2023-04-01T00:32:24;4.60;;;1.25;;
70929;SDS011;58588;48.102;19.682;2023-04-01T00:35:27;4.13;;;0.95;;
70929;SDS011;58588;48.102;19.682;2023-04-01T00:38:31;5.00;;;1.17;;
70929;SDS011;58588;48.102;19.682;2023-04-01T00:41:33;9.23;;;3.00;;
70929;SDS011;58588;48.102;19.682;2023-04-01T00:44:36;5.73;;;1.33;;
70929;SDS011;58588;48.102;19.682;2023-04-01T00:47:39;5.85;;;1.23;;
70929;SDS011;58588;48.102;19.682;2023-04-01T00:50:42;8.48;;;1.63;;
70929;SDS011;58588;48.102;19.682;2023-04-01T00:53:51;6.65;;;1.70;;
70929;SDS011;58588;48.102;19.682;2023-04-01T00:56:56;4.97;;;1.23;;
70929;SDS011;58588;48.102;19.682;2023-04-01T01:00:01;8.90;;;2.03;;
70929;SDS011;58588;48.102;19.682;2023-04-01T01:03:05;7.38;;;1.70;;
70929;SDS011;58588;48.102;19.682;2023-04-01T01:06:08;14.40;;;5.18;;
70929;SDS011;58588;48.102;19.682;2023-04-01T01:09:28;36.45;;;14.32;;
70929;SDS011;58588;48.102;19.682;2023-04-01T01:12:39;20.90;;;7.63;;
70929;SDS011;58588;48.102;19.682;2023-04-01T01:15:46;28.03;;;11.67;;
70929;SDS011;58588;48.102;19.682;2023-04-01T01:18:54;11.02;;;4.72;;
70929;SDS011;58588;48.102;19.682;2023-04-01T01:22:05;12.40;;;4.40;;
70929;SDS011;58588;48.102;19.682;2023-04-01T01:25:38;16.63;;;6.45;;
70929;SDS011;58588;48.102;19.682;2023-04-01T01:28:47;12.03;;;4.43;;
70929;SDS011;58588;48.102;19.682;2023-04-01T01:32:05;11.30;;;3.83;;
70929;SDS011;58588;48.102;19.682;2023-04-01T01:35:16;10.68;;;3.45;;
70929;SDS011;58588;48.102;19.682;2023-04-01T01:38:24;11.18;;;4.72;;
70929;SDS011;58588;48.102;19.682;2023-04-01T01:41:31;8.00;;;2.83;;
70929;SDS011;58588;48.102;19.682;2023-04-01T01:44:35;8.37;;;2.73;;
70929;SDS011;58588;48.102;19.682;2023-04-01T01:47:39;8.53;;;2.57;;
70929;SDS011;58588;48.102;19.682;2023-04-01T01:50:43;7.80;;;2.90;;
70929;SDS011;58588;48.102;19.682;2023-04-01T01:53:47;8.60;;;3.00;;
70929;SDS011;58588;48.102;19.682;2023-04-01T01:56:50;7.03;;;2.50;;
70929;SDS011;58588;48.102;19.682;2023-04-01T01:59:58;7.43;;;2.03;;
70929;SDS011;58588;48.102;19.682;2023-04-01T02:03:08;7.90;;;2.40;;
70929;SDS011;58588;48.102;19.682;2023-04-01T02:06:13;11.93;;;4.22;;
70929;SDS011;58588;48.102;19.682;2023-04-01T02:09:17;6.78;;;2.40;;
70929;SDS011;58588;48.102;19.682;2023-04-01T02:12:20;8.65;;;2.63;;
70929;SDS011;58588;48.102;19.682;2023-04-01T02:15:25;13.67;;;5.70;;
70929;SDS011;58588;48.102;19.682;2023-04-01T02:18:30;11.00;;;5.03;;
70929;SDS011;58588;48.102;19.682;2023-04-01T02:21:36;10.30;;;4.10;;
70929;SDS011;58588;48.102;19.682;2023-04-01T02:24:40;7.32;;;2.40;;
70929;SDS011;58588;48.102;19.682;2023-04-01T02:27:45;7.30;;;2.20;;
70929;SDS011;58588;48.102;19.682;2023-04-01T02:30:48;7.23;;;2.20;;
70929;SDS011;58588;48.102;19.682;2023-04-01T02:33:51;8.13;;;2.60;;
70929;SDS011;58588;48.102;19.682;2023-04-01T02:36:56;7.60;;;2.60;;
70929;SDS011;58588;48.102;19.682;2023-04-01T02:39:59;7.30;;;2.42;;
70929;SDS011;58588;48.102;19.682;2023-04-01T02:43:01;7.43;;;2.85;;
70929;SDS011;58588;48.102;19.682;2023-04-01T02:46:03;9.57;;;2.63;;
70929;SDS011;58588;48.102;19.682;2023-04-01T02:49:05;7.53;;;2.57;;
70929;SDS011;58588;48.102;19.682;2023-04-01T02:52:09;9.38;;;3.28;;
70929;SDS011;58588;48.102;19.682;2023-04-01T02:55:11;7.82;;;2.90;;
70929;SDS011;58588;48.102;19.682;2023-04-01T02:58:13;8.35;;;3.00;;
70929;SDS011;58588;48.102;19.682;2023-04-01T03:01:15;7.93;;;2.77;;
70929;SDS011;58588;48.102;19.682;2023-04-01T03:04:17;6.60;;;2.80;;
70929;SDS011;58588;48.102;19.682;2023-04-01T03:07:21;7.68;;;2.80;;
70929;SDS011;58588;48.102;19.682;2023-04-01T03:10:23;7.13;;;2.90;;
70929;SDS011;58588;48.102;19.682;2023-04-01T03:13:25;9.27;;;3.15;;
70929;SDS011;58588;48.102;19.682;2023-04-01T03:16:27;7.73;;;3.10;;
70929;SDS011;58588;48.102;19.682;2023-04-01T03:19:29;7.87;;;3.30;;
70929;SDS011;58588;48.102;19.682;2023-04-01T03:22:33;10.10;;;2.88;;
70929;SDS011;58588;48.102;19.682;2023-04-01T03:25:35;8.82;;;3.10;;
70929;SDS011;58588;48.102;19.682;2023-04-01T03:28:37;8.23;;;3.45;;
70929;SDS011;58588;48.102;19.682;2023-04-01T03:31:39;8.50;;;3.13;;
70929;SDS011;58588;48.102;19.682;2023-04-01T03:34:41;9.30;;;3.27;;
70929;SDS011;58588;48.102;19.682;2023-04-01T03:37:44;9.85;;;3.53;;
70929;SDS011;58588;48.102;19.682;2023-04-01T03:40:46;8.70;;;2.95;;
70929;SDS011;58588;48.102;19.682;2023-04-01T03:43:49;10.90;;;3.78;;
70929;SDS011;58588;48.102;19.682;2023-04-01T03:46:51;9.27;;;3.90;;
70929;SDS011;58588;48.102;19.682;2023-04-01T03:49:53;7.93;;;3.13;;
70929;SDS011;58588;48.102;19.682;2023-04-01T03:52:56;10.65;;;4.22;;
70929;SDS011;58588;48.102;19.682;2023-04-01T03:55:58;12.27;;;4.20;;
70929;SDS011;58588;48.102;19.682;2023-04-01T03:59:05;9.48;;;3.90;;
70929;SDS011;58588;48.102;19.682;2023-04-01T04:02:08;10.00;;;4.03;;
70929;SDS011;58588;48.102;19.682;2023-04-01T04:05:10;9.17;;;3.77;;
70929;SDS011;58588;48.102;19.682;2023-04-01T04:08:14;10.77;;;4.10;;
70929;SDS011;58588;48.102;19.682;2023-04-01T04:11:17;10.90;;;3.80;;
70929;SDS011;58588;48.102;19.682;2023-04-01T04:14:20;14.68;;;6.05;;
70929;SDS011;58588;48.102;19.682;2023-04-01T04:17:22;14.03;;;5.40;;
70929;SDS011;58588;48.102;19.682;2023-04-01T04:20:24;14.33;;;6.00;;
70929;SDS011;58588;48.102;19.682;2023-04-01T04:23:28;13.50;;;5.55;;
70929;SDS011;58588;48.102;19.682;2023-04-01T04:26:33;12.07;;;5.22;;
70929;SDS011;58588;48.102;19.682;2023-04-01T04:29:35;10.88;;;4.57;;
70929;SDS011;58588;48.102;19.682;2023-04-01T04:32:37;11.17;;;4.83;;
70929;SDS011;58588;48.102;19.682;2023-04-01T04:35:40;11.20;;;5.00;;
70929;SDS011;58588;48.102;19.682;2023-04-01T04:38:44;10.70;;;4.25;;
70929;SDS011;58588;48.102;19.682;2023-04-01T04:41:46;11.40;;;4.78;;
70929;SDS011;58588;48.102;19.682;2023-04-01T04:44:48;10.10;;;4.32;;
70929;SDS011;58588;48.102;19.682;2023-04-01T04:47:50;9.90;;;4.33;;
70929;SDS011;58588;48.102;19.682;2023-04-01T04:50:52;10.77;;;4.83;;
70929;SDS011;58588;48.102;19.682;2023-04-01T04:53:55;12.68;;;4.25;;
70929;SDS011;58588;48.102;19.682;2023-04-01T04:56:57;11.07;;;4.28;;
70929;SDS011;58588;48.102;19.682;2023-04-01T04:59:59;12.65;;;4.60;;
70929;SDS011;58588;48.102;19.682;2023-04-01T05:03:19;10.03;;;4.40;;
70929;SDS011;58588;48.102;19.682;2023-04-01T05:06:21;13.10;;;4.70;;
70929;SDS011;58588;48.102;19.682;2023-04-01T05:09:24;11.73;;;4.75;;
70929;SDS011;58588;48.102;19.682;2023-04-01T05:12:26;13.32;;;5.30;;
70929;SDS011;58588;48.102;19.682;2023-04-01T05:15:28;23.75;;;8.80;;
70929;SDS011;58588;48.102;19.682;2023-04-01T05:18:30;20.97;;;7.60;;
70929;SDS011;58588;48.102;19.682;2023-04-01T05:21:32;14.57;;;5.53;;
70929;SDS011;58588;48.102;19.682;2023-04-01T05:24:36;11.00;;;5.05;;
70929;SDS011;58588;48.102;19.682;2023-04-01T05:27:38;12.10;;;5.25;;
70929;SDS011;58588;48.102;19.682;2023-04-01T05:30:40;28.45;;;15.57;;
70929;SDS011;58588;48.102;19.682;2023-04-01T05:33:42;31.53;;;17.13;;
70929;SDS011;58588;48.102;19.682;2023-04-01T05:36:45;14.53;;;6.80;;
70929;SDS011;58588;48.102;19.682;2023-04-01T05:39:48;12.70;;;5.32;;
70929;SDS011;58588;48.102;19.682;2023-04-01T05:42:50;13.73;;;6.03;;
70929;SDS011;58588;48.102;19.682;2023-04-01T05:45:52;33.88;;;17.35;;
70929;SDS011;58588;48.102;19.682;2023-04-01T05:48:54;17.80;;;8.50;;
70929;SDS011;58588;48.102;19.682;2023-04-01T05:51:56;12.53;;;5.53;;
70929;SDS011;58588;48.102;19.682;2023-04-01T05:55:00;11.60;;;5.30;;
70929;SDS011;58588;48.102;19.682;2023-04-01T05:58:02;10.43;;;5.13;;
70929;SDS011;58588;48.102;19.682;2023-04-01T06:01:04;11.68;;;6.22;;
70929;SDS011;58588;48.102;19.682;2023-04-01T06:04:09;13.77;;;6.27;;
70929;SDS011;58588;48.102;19.682;2023-04-01T06:07:15;12.73;;;5.33;;
70929;SDS011;58588;48.102;19.682;2023-04-01T06:10:21;12.13;;;5.70;;
70929;SDS011;58588;48.102;19.682;2023-04-01T06:13:31;12.30;;;5.05;;
70929;SDS011;58588;48.102;19.682;2023-04-01T06:16:46;11.25;;;5.45;;
70929;SDS011;58588;48.102;19.682;2023-04-01T06:20:02;12.93;;;5.70;;
70929;SDS011;58588;48.102;19.682;2023-04-01T06:23:16;12.03;;;5.63;;
70929;SDS011;58588;48.102;19.682;2023-04-01T06:26:36;18.38;;;9.65;;
70929;SDS011;58588;48.102;19.682;2023-04-01T06:29:50;13.82;;;6.60;;
70929;SDS011;58588;48.102;19.682;2023-04-01T06:36:48;11.17;;;5.23;;
70929;SDS011;58588;48.102;19.682;2023-04-01T06:40:08;11.40;;;5.00;;
70929;SDS011;58588;48.102;19.682;2023-04-01T06:43:25;12.05;;;4.63;;
70929;SDS011;58588;48.102;19.682;2023-04-01T06:46:40;9.07;;;4.38;;
70929;SDS011;58588;48.102;19.682;2023-04-01T06:49:48;12.85;;;6.13;;
70929;SDS011;58588;48.102;19.682;2023-04-01T06:53:01;12.00;;;5.53;;
70929;SDS011;58588;48.102;19.682;2023-04-01T06:56:10;10.60;;;4.90;;
70929;SDS011;58588;48.102;19.682;2023-04-01T06:59:18;11.38;;;4.68;;
70929;SDS011;58588;48.102;19.682;2023-04-01T07:02:25;13.35;;;4.55;;
70929;SDS011;58588;48.102;19.682;2023-04-01T07:05:35;10.38;;;4.32;;
70929;SDS011;58588;48.102;19.682;2023-04-01T07:08:38;10.73;;;4.10;;
70929;SDS011;58588;48.102;19.682;2023-04-01T07:11:44;9.43;;;3.87;;
70929;SDS011;58588;48.102;19.682;2023-04-01T07:14:48;9.93;;;4.38;;
70929;SDS011;58588;48.102;19.682;2023-04-01T07:17:55;8.38;;;3.53;;
70929;SDS011;58588;48.102;19.682;2023-04-01T07:21:00;9.20;;;3.83;;
70929;SDS011;58588;48.102;19.682;2023-04-01T07:24:04;8.83;;;3.90;;
70929;SDS011;58588;48.102;19.682;2023-04-01T07:27:11;8.50;;;3.60;;
70929;SDS011;58588;48.102;19.682;2023-04-01T07:30:17;7.97;;;2.95;;
70929;SDS011;58588;48.102;19.682;2023-04-01T07:33:21;7.63;;;3.33;;
70929;SDS011;58588;48.102;19.682;2023-04-01T07:36:41;9.65;;;3.33;;
70929;SDS011;58588;48.102;19.682;2023-04-01T07:39:49;8.70;;;3.80;;
70929;SDS011;58588;48.102;19.682;2023-04-01T07:43:02;8.33;;;3.10;;
70929;SDS011;58588;48.102;19.682;2023-04-01T07:46:20;9.07;;;3.53;;
70929;SDS011;58588;48.102;19.682;2023-04-01T07:49:35;8.43;;;3.35;;
70929;SDS011;58588;48.102;19.682;2023-04-01T07:52:47;8.25;;;3.50;;
70929;SDS011;58588;48.102;19.682;2023-04-01T07:55:56;10.07;;;3.37;;
70929;SDS011;58588;48.102;19.682;2023-04-01T07:59:05;10.37;;;3.63;;
70929;SDS011;58588;48.102;19.682;2023-04-01T08:02:14;11.80;;;3.50;;
70929;SDS011;58588;48.102;19.682;2023-04-01T08:05:27;6.80;;;2.80;;
70929;SDS011;58588;48.102;19.682;2023-04-01T08:08:36;8.82;;;3.20;;
70929;SDS011;58588;48.102;19.682;2023-04-01T08:11:51;9.30;;;3.43;;
70929;SDS011;58588;48.102;19.682;2023-04-01T08:15:05;6.90;;;2.67;;
70929;SDS011;58588;48.102;19.682;2023-04-01T08:18:17;8.45;;;2.83;;
70929;SDS011;58588;48.102;19.682;2023-04-01T08:21:30;6.60;;;2.83;;
70929;SDS011;58588;48.102;19.682;2023-04-01T08:24:37;8.23;;;2.47;;
70929;SDS011;58588;48.102;19.682;2023-04-01T08:27:43;7.17;;;2.53;;
70929;SDS011;58588;48.102;19.682;2023-04-01T08:30:50;7.50;;;2.50;;
70929;SDS011;58588;48.102;19.682;2023-04-01T08:33:58;8.32;;;2.70;;
70929;SDS011;58588;48.102;19.682;2023-04-01T08:37:05;7.28;;;2.92;;
70929;SDS011;58588;48.102;19.682;2023-04-01T08:40:27;8.10;;;2.55;;
70929;SDS011;58588;48.102;19.682;2023-04-01T08:43:41;8.67;;;3.33;;
70929;SDS011;58588;48.102;19.682;2023-04-01T08:54:16;7.28;;;2.50;;
70929;SDS011;58588;48.102;19.682;2023-04-01T08:57:34;6.45;;;2.15;;
70929;SDS011;58588;48.102;19.682;2023-04-01T09:00:47;8.77;;;2.73;;
70929;SDS011;58588;48.102;19.682;2023-04-01T09:03:58;7.77;;;2.40;;
70929;SDS011;58588;48.102;19.682;2023-04-01T09:07:20;6.85;;;2.15;;
70929;SDS011;58588;48.102;19.682;2023-04-01T09:10:43;6.63;;;2.20;;
70929;SDS011;58588;48.102;19.682;2023-04-01T09:14:07;6.78;;;2.22;;
70929;SDS011;58588;48.102;19.682;2023-04-01T09:17:36;8.40;;;2.80;;
70929;SDS011;58588;48.102;19.682;2023-04-01T09:21:02;7.63;;;2.30;;
70929;SDS011;58588;48.102;19.682;2023-04-01T09:24:29;7.05;;;2.10;;
70929;SDS011;58588;48.102;19.682;2023-04-01T09:27:52;6.35;;;2.00;;
70929;SDS011;58588;48.102;19.682;2023-04-01T09:31:03;6.60;;;1.77;;
70929;SDS011;58588;48.102;19.682;2023-04-01T09:34:30;5.47;;;1.97;;
70929;SDS011;58588;48.102;19.682;2023-04-01T09:37:49;6.57;;;1.90;;
70929;SDS011;58588;48.102;19.682;2023-04-01T09:40:55;7.40;;;1.75;;
70929;SDS011;58588;48.102;19.682;2023-04-01T09:44:02;6.88;;;2.00;;
70929;SDS011;58588;48.102;19.682;2023-04-01T09:47:09;6.70;;;1.65;;
70929;SDS011;58588;48.102;19.682;2023-04-01T09:50:33;7.83;;;1.70;;
70929;SDS011;58588;48.102;19.682;2023-04-01T09:53:46;6.83;;;1.60;;
70929;SDS011;58588;48.102;19.682;2023-04-01T09:57:22;6.40;;;1.42;;
70929;SDS011;58588;48.102;19.682;2023-04-01T10:00:52;6.95;;;1.50;;
70929;SDS011;58588;48.102;19.682;2023-04-01T10:08:00;5.20;;;1.43;;
70929;SDS011;58588;48.102;19.682;2023-04-01T10:11:35;4.93;;;1.30;;
70929;SDS011;58588;48.102;19.682;2023-04-01T10:15:07;6.75;;;1.50;;
70929;SDS011;58588;48.102;19.682;2023-04-01T10:18:45;5.90;;;1.33;;
70929;SDS011;58588;48.102;19.682;2023-04-01T10:29:31;5.30;;;1.07;;
70929;SDS011;58588;48.102;19.682;2023-04-01T10:43:43;4.13;;;0.80;;
70929;SDS011;58588;48.102;19.682;2023-04-01T10:47:11;4.90;;;0.90;;
70929;SDS011;58588;48.102;19.682;2023-04-01T10:50:46;5.10;;;1.00;;
70929;SDS011;58588;48.102;19.682;2023-04-01T10:54:28;4.22;;;0.95;;
70929;SDS011;58588;48.102;19.682;2023-04-01T10:57:57;3.83;;;0.60;;
70929;SDS011;58588;48.102;19.682;2023-04-01T11:01:40;4.00;;;0.80;;
70929;SDS011;58588;48.102;19.682;2023-04-01T11:08:51;3.78;;;0.60;;
70929;SDS011;58588;48.102;19.682;2023-04-01T11:16:03;5.93;;;0.80;;
70929;SDS011;58588;48.102;19.682;2023-04-01T11:23:14;4.17;;;0.60;;
70929;SDS011;58588;48.102;19.682;2023-04-01T11:26:36;3.80;;;0.68;;
70929;SDS011;58588;48.102;19.682;2023-04-01T11:29:51;3.30;;;0.52;;
70929;SDS011;58588;48.102;19.682;2023-04-01T11:33:06;2.90;;;0.40;;
70929;SDS011;58588;48.102;19.682;2023-04-01T11:36:21;3.80;;;0.63;;
70929;SDS011;58588;48.102;19.682;2023-04-01T11:39:37;3.40;;;0.57;;
70929;SDS011;58588;48.102;19.682;2023-04-01T11:42:53;3.10;;;0.50;;
70929;SDS011;58588;48.102;19.682;2023-04-01T11:46:00;3.55;;;0.45;;
70929;SDS011;58588;48.102;19.682;2023-04-01T11:49:18;2.65;;;0.40;;
70929;SDS011;58588;48.102;19.682;2023-04-01T11:52:34;1.80;;;0.25;;
70929;SDS011;58588;48.102;19.682;2023-04-01T11:56:06;1.93;;;0.30;;
70929;SDS011;58588;48.102;19.682;2023-04-01T11:59:25;2.08;;;0.47;;
70929;SDS011;58588;48.102;19.682;2023-04-01T12:02:44;2.10;;;0.30;;
70929;SDS011;58588;48.102;19.682;2023-04-01T12:06:00;1.48;;;0.30;;
70929;SDS011;58588;48.102;19.682;2023-04-01T12:09:08;2.05;;;0.30;;
70929;SDS011;58588;48.102;19.682;2023-04-01T12:12:18;1.77;;;0.30;;
70929;SDS011;58588;48.102;19.682;2023-04-01T12:15:30;23.33;;;2.47;;
70929;SDS011;58588;48.102;19.682;2023-04-01T12:18:41;5.68;;;0.70;;
70929;SDS011;58588;48.102;19.682;2023-04-01T12:21:52;2.38;;;0.40;;
70929;SDS011;58588;48.102;19.682;2023-04-01T12:25:24;2.75;;;0.40;;
70929;SDS011;58588;48.102;19.682;2023-04-01T12:28:41;3.83;;;0.50;;
70929;SDS011;58588;48.102;19.682;2023-04-01T12:31:56;2.70;;;0.40;;
70929;SDS011;58588;48.102;19.682;2023-04-01T12:38:39;2.30;;;0.50;;
70929;SDS011;58588;48.102;19.682;2023-04-01T12:41:51;25.90;;;9.90;;
70929;SDS011;58588;48.102;19.682;2023-04-01T12:45:08;4.87;;;1.23;;
70929;SDS011;58588;48.102;19.682;2023-04-01T12:48:31;3.50;;;0.65;;
70929;SDS011;58588;48.102;19.682;2023-04-01T12:51:50;3.20;;;0.50;;
70929;SDS011;58588;48.102;19.682;2023-04-01T12:58:55;3.00;;;0.35;;
70929;SDS011;58588;48.102;19.682;2023-04-01T13:02:12;2.27;;;0.40;;
70929;SDS011;58588;48.102;19.682;2023-04-01T13:05:32;2.17;;;0.40;;
70929;SDS011;58588;48.102;19.682;2023-04-01T13:09:06;2.35;;;0.40;;
70929;SDS011;58588;48.102;19.682;2023-04-01T13:12:23;3.15;;;0.30;;
70929;SDS011;58588;48.102;19.682;2023-04-01T13:15:41;2.35;;;0.40;;
70929;SDS011;58588;48.102;19.682;2023-04-01T13:18:54;2.13;;;0.40;;
70929;SDS011;58588;48.102;19.682;2023-04-01T13:22:04;2.90;;;0.50;;
70929;SDS011;58588;48.102;19.682;2023-04-01T13:25:16;4.22;;;0.40;;
70929;SDS011;58588;48.102;19.682;2023-04-01T13:28:29;2.30;;;0.30;;
70929;SDS011;58588;48.102;19.682;2023-04-01T13:31:52;2.13;;;0.40;;
70929;SDS011;58588;48.102;19.682;2023-04-01T13:35:08;2.97;;;0.40;;
70929;SDS011;58588;48.102;19.682;2023-04-01T13:38:35;0.85;;;0.20;;
70929;SDS011;58588;48.102;19.682;2023-04-01T13:41:52;3.17;;;0.32;;
70929;SDS011;58588;48.102;19.682;2023-04-01T13:45:09;1.52;;;0.30;;
70929;SDS011;58588;48.102;19.682;2023-04-01T13:48:25;1.80;;;0.20;;
70929;SDS011;58588;48.102;19.682;2023-04-01T13:51:41;1.90;;;0.33;;
70929;SDS011;58588;48.102;19.682;2023-04-01T13:54:57;1.67;;;0.30;;
70929;SDS011;58588;48.102;19.682;2023-04-01T13:58:29;2.55;;;0.50;;
70929;SDS011;58588;48.102;19.682;2023-04-01T14:01:53;5.63;;;0.82;;
70929;SDS011;58588;48.102;19.682;2023-04-01T14:05:12;2.47;;;0.40;;
70929;SDS011;58588;48.102;19.682;2023-04-01T14:08:30;2.73;;;0.40;;
70929;SDS011;58588;48.102;19.682;2023-04-01T14:11:45;2.58;;;0.40;;
70929;SDS011;58588;48.102;19.682;2023-04-01T14:15:11;3.78;;;0.40;;
70929;SDS011;58588;48.102;19.682;2023-04-01T14:22:13;2.80;;;0.45;;
70929;SDS011;58588;48.102;19.682;2023-04-01T14:25:30;3.17;;;0.43;;
70929;SDS011;58588;48.102;19.682;2023-04-01T14:28:48;2.75;;;0.30;;
70929;SDS011;58588;48.102;19.682;2023-04-01T14:32:02;3.80;;;0.55;;
70929;SDS011;58588;48.102;19.682;2023-04-01T14:35:16;2.72;;;0.50;;
70929;SDS011;58588;48.102;19.682;2023-04-01T14:38:38;4.78;;;1.15;;
70929;SDS011;58588;48.102;19.682;2023-04-01T14:41:51;4.33;;;0.90;;
70929;SDS011;58588;48.102;19.682;2023-04-01T14:48:49;3.60;;;0.60;;
70929;SDS011;58588;48.102;19.682;2023-04-01T14:51:54;3.45;;;0.52;;
70929;SDS011;58588;48.102;19.682;2023-04-01T14:54:58;3.10;;;0.50;;
70929;SDS011;58588;48.102;19.682;2023-04-01T14:58:07;6.20;;;0.83;;
70929;SDS011;58588;48.102;19.682;2023-04-01T15:01:32;5.90;;;0.70;;
70929;SDS011;58588;48.102;19.682;2023-04-01T15:04:50;4.88;;;0.47;;
70929;SDS011;58588;48.102;19.682;2023-04-01T15:08:00;3.85;;;0.40;;
70929;SDS011;58588;48.102;19.682;2023-04-01T15:11:21;2.88;;;0.40;;
70929;SDS011;58588;48.102;19.682;2023-04-01T15:14:40;9.33;;;2.43;;
70929;SDS011;58588;48.102;19.682;2023-04-01T15:17:51;2.83;;;0.60;;
70929;SDS011;58588;48.102;19.682;2023-04-01T15:21:10;3.78;;;0.80;;
70929;SDS011;58588;48.102;19.682;2023-04-01T15:24:22;2.63;;;0.52;;
70929;SDS011;58588;48.102;19.682;2023-04-01T15:27:32;2.25;;;0.40;;
70929;SDS011;58588;48.102;19.682;2023-04-01T15:30:45;4.97;;;0.60;;
70929;SDS011;58588;48.102;19.682;2023-04-01T15:34:04;2.95;;;0.50;;
70929;SDS011;58588;48.102;19.682;2023-04-01T15:37:25;4.40;;;0.50;;
70929;SDS011;58588;48.102;19.682;2023-04-01T15:40:38;1.77;;;0.32;;
70929;SDS011;58588;48.102;19.682;2023-04-01T15:43:48;4.93;;;0.50;;
70929;SDS011;58588;48.102;19.682;2023-04-01T15:46:52;2.73;;;0.57;;
70929;SDS011;58588;48.102;19.682;2023-04-01T15:49:55;4.20;;;0.70;;
70929;SDS011;58588;48.102;19.682;2023-04-01T15:53:06;2.63;;;0.60;;
70929;SDS011;58588;48.102;19.682;2023-04-01T15:56:26;4.95;;;0.60;;
70929;SDS011;58588;48.102;19.682;2023-04-01T16:03:15;5.23;;;1.00;;
70929;SDS011;58588;48.102;19.682;2023-04-01T16:06:24;5.68;;;0.93;;
70929;SDS011;58588;48.102;19.682;2023-04-01T16:09:50;5.47;;;0.88;;
70929;SDS011;58588;48.102;19.682;2023-04-01T16:13:04;11.10;;;1.40;;
70929;SDS011;58588;48.102;19.682;2023-04-01T16:16:26;11.65;;;3.75;;
70929;SDS011;58588;48.102;19.682;2023-04-01T16:19:37;9.10;;;0.90;;
70929;SDS011;58588;48.102;19.682;2023-04-01T16:22:53;5.47;;;0.82;;
70929;SDS011;58588;48.102;19.682;2023-04-01T16:26:01;7.53;;;1.85;;
70929;SDS011;58588;48.102;19.682;2023-04-01T16:29:10;11.90;;;4.93;;
70929;SDS011;58588;48.102;19.682;2023-04-01T16:32:26;45.33;;;17.92;;
70929;SDS011;58588;48.102;19.682;2023-04-01T16:35:38;29.20;;;13.30;;
70929;SDS011;58588;48.102;19.682;2023-04-01T16:38:46;25.75;;;11.60;;
70929;SDS011;58588;48.102;19.682;2023-04-01T16:41:57;8.40;;;3.85;;
70929;SDS011;58588;48.102;19.682;2023-04-01T16:45:26;9.05;;;2.60;;
70929;SDS011;58588;48.102;19.682;2023-04-01T16:48:42;5.40;;;1.90;;
70929;SDS011;58588;48.102;19.682;2023-04-01T16:51:54;6.03;;;1.80;;
70929;SDS011;58588;48.102;19.682;2023-04-01T16:55:01;7.93;;;2.30;;
70929;SDS011;58588;48.102;19.682;2023-04-01T16:58:14;6.03;;;1.27;;
70929;SDS011;58588;48.102;19.682;2023-04-01T17:01:23;195.35;;;73.82;;
70929;SDS011;58588;48.102;19.682;2023-04-01T17:04:32;31.33;;;14.70;;
70929;SDS011;58588;48.102;19.682;2023-04-01T17:07:43;18.10;;;9.03;;
70929;SDS011;58588;48.102;19.682;2023-04-01T17:10:51;6.45;;;2.10;;
70929;SDS011;58588;48.102;19.682;2023-04-01T17:14:01;6.72;;;2.25;;
70929;SDS011;58588;48.102;19.682;2023-04-01T17:17:18;7.68;;;3.22;;
70929;SDS011;58588;48.102;19.682;2023-04-01T17:20:32;16.40;;;3.00;;
70929;SDS011;58588;48.102;19.682;2023-04-01T17:23:42;7.73;;;2.53;;
70929;SDS011;58588;48.102;19.682;2023-04-01T17:26:50;11.38;;;4.88;;
70929;SDS011;58588;48.102;19.682;2023-04-01T17:30:05;7.93;;;2.38;;
70929;SDS011;58588;48.102;19.682;2023-04-01T17:33:20;7.63;;;2.67;;
70929;SDS011;58588;48.102;19.682;2023-04-01T17:36:40;20.10;;;9.87;;
70929;SDS011;58588;48.102;19.682;2023-04-01T17:39:55;34.33;;;17.87;;
70929;SDS011;58588;48.102;19.682;2023-04-01T17:43:08;31.73;;;15.45;;
70929;SDS011;58588;48.102;19.682;2023-04-01T17:46:25;42.03;;;22.80;;
70929;SDS011;58588;48.102;19.682;2023-04-01T17:49:35;48.22;;;24.77;;
70929;SDS011;58588;48.102;19.682;2023-04-01T17:52:44;49.93;;;26.03;;
70929;SDS011;58588;48.102;19.682;2023-04-01T17:55:58;32.53;;;16.27;;
70929;SDS011;58588;48.102;19.682;2023-04-01T17:59:16;28.58;;;16.17;;
70929;SDS011;58588;48.102;19.682;2023-04-01T18:02:29;50.58;;;34.38;;
70929;SDS011;58588;48.102;19.682;2023-04-01T18:05:47;41.90;;;24.95;;
70929;SDS011;58588;48.102;19.682;2023-04-01T18:09:00;26.80;;;14.77;;
70929;SDS011;58588;48.102;19.682;2023-04-01T18:12:18;16.77;;;9.13;;
70929;SDS011;58588;48.102;19.682;2023-04-01T18:15:27;24.10;;;12.75;;
70929;SDS011;58588;48.102;19.682;2023-04-01T18:18:42;29.30;;;14.52;;
70929;SDS011;58588;48.102;19.682;2023-04-01T18:21:56;48.58;;;29.02;;
70929;SDS011;58588;48.102;19.682;2023-04-01T18:25:11;20.73;;;9.00;;
70929;SDS011;58588;48.102;19.682;2023-04-01T18:28:21;56.77;;;17.33;;
70929;SDS011;58588;48.102;19.682;2023-04-01T18:31:32;77.75;;;27.13;;
70929;SDS011;58588;48.102;19.682;2023-04-01T18:34:40;63.70;;;24.42;;
70929;SDS011;58588;48.102;19.682;2023-04-01T18:37:53;70.68;;;22.98;;
70929;SDS011;58588;48.102;19.682;2023-04-01T18:41:12;63.33;;;21.83;;
70929;SDS011;58588;48.102;19.682;2023-04-01T18:44:19;73.23;;;26.03;;
70929;SDS011;58588;48.102;19.682;2023-04-01T18:47:32;42.03;;;16.58;;
70929;SDS011;58588;48.102;19.682;2023-04-01T18:50:43;64.88;;;24.95;;
70929;SDS011;58588;48.102;19.682;2023-04-01T18:53:53;19.20;;;9.70;;
70929;SDS011;58588;48.102;19.682;2023-04-01T18:57:02;28.60;;;12.90;;
70929;SDS011;58588;48.102;19.682;2023-04-01T19:00:13;29.93;;;13.33;;
70929;SDS011;58588;48.102;19.682;2023-04-01T19:03:22;25.38;;;12.20;;
70929;SDS011;58588;48.102;19.682;2023-04-01T19:06:33;26.08;;;11.77;;
70929;SDS011;58588;48.102;19.682;2023-04-01T19:09:43;57.25;;;23.55;;
70929;SDS011;58588;48.102;19.682;2023-04-01T19:12:51;40.77;;;15.87;;
70929;SDS011;58588;48.102;19.682;2023-04-01T19:16:04;20.07;;;8.70;;
70929;SDS011;58588;48.102;19.682;2023-04-01T19:19:21;17.75;;;7.57;;
70929;SDS011;58588;48.102;19.682;2023-04-01T19:22:42;21.00;;;8.75;;
70929;SDS011;58588;48.102;19.682;2023-04-01T19:25:55;21.73;;;10.27;;
70929;SDS011;58588;48.102;19.682;2023-04-01T19:29:02;21.93;;;8.43;;
70929;SDS011;58588;48.102;19.682;2023-04-01T19:32:16;24.40;;;9.67;;
70929;SDS011;58588;48.102;19.682;2023-04-01T19:35:28;20.20;;;7.32;;
70929;SDS011;58588;48.102;19.682;2023-04-01T19:38:37;21.77;;;10.57;;
70929;SDS011;58588;48.102;19.682;2023-04-01T19:41:42;17.25;;;8.50;;
70929;SDS011;58588;48.102;19.682;2023-04-01T19:44:56;18.77;;;7.70;;
70929;SDS011;58588;48.102;19.682;2023-04-01T19:48:12;16.13;;;7.03;;
70929;SDS011;58588;48.102;19.682;2023-04-01T19:51:29;16.42;;;7.22;;